sensor_id;sensor_type;location;lat;lon;timestamp;pressure;altitude;pressure_sealevel;temperature;humidity
76609;BME280;65928;53.936;27.540;2023-02-03T00:00:43;98058.84;;;-1.98;80.31
76609;BME280;65928;53.936;27.540;2023-02-03T00:03:09;98486.81;;;0.76;81.28
76609;BME280;65928;53.936;27.540;2023-02-03T00:05:35;98474.31;;;0.52;81.06
76609;BME280;65928;53.936;27.540;2023-02-03T00:08:02;98462.88;;;0.61;80.81
76609;BME280;65928;53.936;27.540;2023-02-03T00:10:28;97972.66;;;-2.52;80.61
76609;BME280;65928;53.936;27.540;2023-02-03T00:12:54;98531.50;;;0.51;81.28
76609;BME280;65928;53.936;27.540;2023-02-03T00:15:20;98466.72;;;0.42;81.68
76609;BME280;65928;53.936;27.540;2023-02-03T00:17:47;98094.97;;;-1.92;82.84
76609;BME280;65928;53.936;27.540;2023-02-03T00:20:13;98483.22;;;0.39;83.24
76609;BME280;65928;53.936;27.540;2023-02-03T00:22:39;98268.66;;;-0.98;82.82
76609;BME280;65928;53.936;27.540;2023-02-03T00:25:05;98503.16;;;0.40;82.90
76609;BME280;65928;53.936;27.540;2023-02-03T00:27:31;98162.50;;;-1.52;81.81
76609;BME280;65928;53.936;27.540;2023-02-03T00:29:56;98090.66;;;-1.92;80.82
76609;BME280;65928;53.936;27.540;2023-02-03T00:32:22;98008.72;;;-2.43;81.17
76609;BME280;65928;53.936;27.540;2023-02-03T00:34:47;98520.25;;;0.52;80.94
76609;BME280;65928;53.936;27.540;2023-02-03T00:37:13;98525.44;;;0.52;81.10
76609;BME280;65928;53.936;27.540;2023-02-03T00:39:38;98013.09;;;-2.46;80.61
76609;BME280;65928;53.936;27.540;2023-02-03T00:42:04;97951.78;;;-2.92;80.96
76609;BME280;65928;53.936;27.540;2023-02-03T00:44:30;98100.56;;;-2.16;81.46
76609;BME280;65928;53.936;27.540;2023-02-03T00:46:56;98508.72;;;0.21;82.54
76609;BME280;65928;53.936;27.540;2023-02-03T00:49:21;98022.00;;;-2.65;82.32
76609;BME280;65928;53.936;27.540;2023-02-03T00:51:47;98592.22;;;0.47;82.71
76609;BME280;65928;53.936;27.540;2023-02-03T00:54:13;98480.38;;;0.07;81.42
76609;BME280;65928;53.936;27.540;2023-02-03T00:56:39;98025.44;;;-2.63;81.32
76609;BME280;65928;53.936;27.540;2023-02-03T00:59:05;98152.75;;;-1.90;81.50
76609;BME280;65928;53.936;27.540;2023-02-03T01:01:32;98470.03;;;0.06;81.28
76609;BME280;65928;53.936;27.540;2023-02-03T01:03:57;98007.97;;;-2.49;81.21
76609;BME280;65928;53.936;27.540;2023-02-03T01:06:24;98441.72;;;-0.08;80.82
76609;BME280;65928;53.936;27.540;2023-02-03T01:08:49;98467.06;;;0.25;80.77
76609;BME280;65928;53.936;27.540;2023-02-03T01:11:21;98015.88;;;-2.58;79.59
76609;BME280;65928;53.936;27.540;2023-02-03T01:13:47;98183.34;;;-1.60;80.40
76609;BME280;65928;53.936;27.540;2023-02-03T01:16:16;98603.19;;;0.64;79.45
76609;BME280;65928;53.936;27.540;2023-02-03T01:18:42;98162.72;;;-1.66;79.78
76609;BME280;65928;53.936;27.540;2023-02-03T01:21:10;98480.09;;;0.22;79.47
76609;BME280;65928;53.936;27.540;2023-02-03T01:23:36;98538.44;;;0.52;79.45
76609;BME280;65928;53.936;27.540;2023-02-03T01:26:04;98574.75;;;0.55;79.98
76609;BME280;65928;53.936;27.540;2023-02-03T01:28:30;98034.09;;;-2.67;80.54
76609;BME280;65928;53.936;27.540;2023-02-03T01:30:56;98228.34;;;-1.65;80.72
76609;BME280;65928;53.936;27.540;2023-02-03T01:33:21;98031.78;;;-2.86;81.69
76609;BME280;65928;53.936;27.540;2023-02-03T01:35:47;98560.00;;;0.10;82.49
76609;BME280;65928;53.936;27.540;2023-02-03T01:38:12;98118.41;;;-2.57;83.21
76609;BME280;65928;53.936;27.540;2023-02-03T01:40:44;98004.91;;;-3.35;82.51
76609;BME280;65928;53.936;27.540;2023-02-03T01:43:54;98523.25;;;-0.18;82.91
76609;BME280;65928;53.936;27.540;2023-02-03T01:46:06;98565.38;;;-0.03;82.78
76609;BME280;65928;53.936;27.540;2023-02-03T01:48:37;98479.47;;;-0.41;83.01
76609;BME280;65928;53.936;27.540;2023-02-03T01:51:03;98512.06;;;-0.23;82.48
76609;BME280;65928;53.936;27.540;2023-02-03T01:53:30;98136.31;;;-2.42;82.00
76609;BME280;65928;53.936;27.540;2023-02-03T01:55:57;98557.00;;;0.32;81.87
76609;BME280;65928;53.936;27.540;2023-02-03T01:58:28;97827.00;;;-4.15;80.59
76609;BME280;65928;53.936;27.540;2023-02-03T02:00:55;98449.19;;;-0.40;81.95
76609;BME280;65928;53.936;27.540;2023-02-03T02:03:35;98030.13;;;-2.91;81.59
76609;BME280;65928;53.936;27.540;2023-02-03T02:06:08;98134.13;;;-2.12;80.67
76609;BME280;65928;53.936;27.540;2023-02-03T02:08:35;98051.44;;;-2.74;81.65
76609;BME280;65928;53.936;27.540;2023-02-03T02:11:02;98057.28;;;-2.61;81.69
76609;BME280;65928;53.936;27.540;2023-02-03T02:13:30;98634.63;;;-0.03;81.70
76609;BME280;65928;53.936;27.540;2023-02-03T02:16:08;98302.34;;;-1.51;80.99
76609;BME280;65928;53.936;27.540;2023-02-03T02:38:03;98045.75;;;-2.99;79.77
76609;BME280;65928;53.936;27.540;2023-02-03T02:45:37;98064.16;;;-3.23;80.30
76609;BME280;65928;53.936;27.540;2023-02-03T02:48:10;98587.19;;;-0.13;80.36
76609;BME280;65928;53.936;27.540;2023-02-03T02:50:40;98055.66;;;-3.32;79.93
76609;BME280;65928;53.936;27.540;2023-02-03T02:53:09;98579.25;;;-0.04;80.86
76609;BME280;65928;53.936;27.540;2023-02-03T02:55:38;98603.56;;;-0.09;80.27
76609;BME280;65928;53.936;27.540;2023-02-03T02:58:09;98082.16;;;-3.15;79.56
76609;BME280;65928;53.936;27.540;2023-02-03T03:00:36;98621.91;;;-0.18;80.80
76609;BME280;65928;53.936;27.540;2023-02-03T03:03:11;98097.59;;;-3.12;80.16
76609;BME280;65928;53.936;27.540;2023-02-03T03:05:39;98619.13;;;-0.08;80.89
76609;BME280;65928;53.936;27.540;2023-02-03T03:08:07;98595.94;;;-0.18;80.81
76609;BME280;65928;53.936;27.540;2023-02-03T03:10:35;98585.78;;;-0.33;81.16
76609;BME280;65928;53.936;27.540;2023-02-03T03:13:06;98112.25;;;-3.14;80.78
76609;BME280;65928;53.936;27.540;2023-02-03T03:15:33;98109.75;;;-3.19;80.40
76609;BME280;65928;53.936;27.540;2023-02-03T03:18:04;98677.34;;;-0.25;80.51
76609;BME280;65928;53.936;27.540;2023-02-03T03:20:34;98284.19;;;-2.10;80.66
76609;BME280;65928;53.936;27.540;2023-02-03T03:23:15;98117.34;;;-3.08;80.08
76609;BME280;65928;53.936;27.540;2023-02-03T03:25:47;98113.81;;;-3.00;79.44
76609;BME280;65928;53.936;27.540;2023-02-03T03:28:24;98088.25;;;-3.21;79.12
76609;BME280;65928;53.936;27.540;2023-02-03T03:30:52;98555.84;;;-0.57;77.94
76609;BME280;65928;53.936;27.540;2023-02-03T03:33:19;98544.34;;;-0.39;78.28
76609;BME280;65928;53.936;27.540;2023-02-03T03:38:22;98634.66;;;-0.05;77.38
76609;BME280;65928;53.936;27.540;2023-02-03T03:40:54;98471.25;;;-1.25;77.45
76609;BME280;65928;53.936;27.540;2023-02-03T03:43:27;98681.72;;;-0.27;77.38
76609;BME280;65928;53.936;27.540;2023-02-03T03:46:01;98592.66;;;-0.29;77.35
76609;BME280;65928;53.936;27.540;2023-02-03T03:48:38;98186.84;;;-2.86;77.78
76609;BME280;65928;53.936;27.540;2023-02-03T03:51:08;98115.66;;;-3.09;78.09
76609;BME280;65928;53.936;27.540;2023-02-03T03:53:39;98687.72;;;-0.22;78.62
76609;BME280;65928;53.936;27.540;2023-02-03T03:56:11;98185.03;;;-2.78;77.66
76609;BME280;65928;53.936;27.540;2023-02-03T03:58:41;98118.50;;;-3.33;78.22
76609;BME280;65928;53.936;27.540;2023-02-03T04:01:10;98093.78;;;-3.54;79.06
76609;BME280;65928;53.936;27.540;2023-02-03T04:03:40;98670.47;;;-0.26;79.93
76609;BME280;65928;53.936;27.540;2023-02-03T04:06:09;98674.19;;;-0.45;80.10
76609;BME280;65928;53.936;27.540;2023-02-03T04:08:34;98661.41;;;-0.59;80.36
76609;BME280;65928;53.936;27.540;2023-02-03T04:10:59;98217.19;;;-3.03;80.33
76609;BME280;65928;53.936;27.540;2023-02-03T04:13:25;98662.44;;;-0.08;80.27
76609;BME280;65928;53.936;27.540;2023-02-03T04:15:50;98673.66;;;-0.06;78.92
76609;BME280;65928;53.936;27.540;2023-02-03T04:18:16;98557.28;;;-0.96;80.62
76609;BME280;65928;53.936;27.540;2023-02-03T04:20:42;98181.50;;;-3.48;79.24
76609;BME280;65928;53.936;27.540;2023-02-03T04:23:08;98503.50;;;-1.48;79.72
76609;BME280;65928;53.936;27.540;2023-02-03T04:25:34;98172.56;;;-3.15;79.16
76609;BME280;65928;53.936;27.540;2023-02-03T04:27:59;98581.09;;;-0.69;78.77
76609;BME280;65928;53.936;27.540;2023-02-03T04:30:25;98169.44;;;-3.47;78.15
76609;BME280;65928;53.936;27.540;2023-02-03T04:32:51;98260.19;;;-2.96;79.85
76609;BME280;65928;53.936;27.540;2023-02-03T04:35:17;98125.41;;;-3.32;80.19
76609;BME280;65928;53.936;27.540;2023-02-03T04:37:42;98587.53;;;-0.99;78.94
76609;BME280;65928;53.936;27.540;2023-02-03T04:40:08;98208.81;;;-3.23;81.08
76609;BME280;65928;53.936;27.540;2023-02-03T04:42:38;98470.25;;;-1.86;80.13
76609;BME280;65928;53.936;27.540;2023-02-03T04:45:06;98741.09;;;-0.03;80.73
76609;BME280;65928;53.936;27.540;2023-02-03T04:47:32;98288.56;;;-2.90;80.20
76609;BME280;65928;53.936;27.540;2023-02-03T04:49:57;98704.41;;;-0.41;80.63
76609;BME280;65928;53.936;27.540;2023-02-03T04:52:22;98712.75;;;-0.18;79.77
76609;BME280;65928;53.936;27.540;2023-02-03T04:54:48;98135.94;;;-3.52;78.01
76609;BME280;65928;53.936;27.540;2023-02-03T04:57:13;98144.38;;;-3.36;79.09
76609;BME280;65928;53.936;27.540;2023-02-03T04:59:39;98807.09;;;-0.18;78.91
76609;BME280;65928;53.936;27.540;2023-02-03T05:02:04;98753.16;;;0.01;78.75
76609;BME280;65928;53.936;27.540;2023-02-03T05:04:31;98295.22;;;-2.67;78.92
76609;BME280;65928;53.936;27.540;2023-02-03T05:06:56;98194.03;;;-3.12;77.49
76609;BME280;65928;53.936;27.540;2023-02-03T05:09:23;98705.91;;;-0.24;77.75
76609;BME280;65928;53.936;27.540;2023-02-03T05:11:49;98273.84;;;-2.83;77.53
76609;BME280;65928;53.936;27.540;2023-02-03T05:14:14;98721.41;;;-0.19;79.30
76609;BME280;65928;53.936;27.540;2023-02-03T05:16:40;98720.16;;;0.09;78.47
76609;BME280;65928;53.936;27.540;2023-02-03T05:19:05;98800.09;;;-0.13;78.54
76609;BME280;65928;53.936;27.540;2023-02-03T05:21:31;98158.78;;;-3.16;77.71
76609;BME280;65928;53.936;27.540;2023-02-03T05:23:56;98297.78;;;-2.64;78.03
76609;BME280;65928;53.936;27.540;2023-02-03T05:26:22;98663.19;;;-0.65;77.39
76609;BME280;65928;53.936;27.540;2023-02-03T05:28:48;98729.56;;;-0.45;78.88
76609;BME280;65928;53.936;27.540;2023-02-03T05:31:13;98824.72;;;-0.47;79.23
76609;BME280;65928;53.936;27.540;2023-02-03T05:33:39;98715.81;;;-0.53;78.88
76609;BME280;65928;53.936;27.540;2023-02-03T05:36:04;98741.91;;;-0.66;79.70
76609;BME280;65928;53.936;27.540;2023-02-03T05:38:30;98756.53;;;-0.59;78.88
76609;BME280;65928;53.936;27.540;2023-02-03T05:40:55;98321.66;;;-3.32;79.14
76609;BME280;65928;53.936;27.540;2023-02-03T05:43:39;98765.69;;;-0.30;79.45
76609;BME280;65928;53.936;27.540;2023-02-03T05:46:06;98766.38;;;-0.92;80.00
76609;BME280;65928;53.936;27.540;2023-02-03T05:48:32;98764.56;;;-0.85;79.15
76609;BME280;65928;53.936;27.540;2023-02-03T05:50:57;98607.97;;;-1.46;79.88
76609;BME280;65928;53.936;27.540;2023-02-03T05:53:23;98652.91;;;-1.50;79.36
76609;BME280;65928;53.936;27.540;2023-02-03T05:55:50;98686.81;;;-0.88;79.44
76609;BME280;65928;53.936;27.540;2023-02-03T05:58:16;98265.72;;;-3.35;77.21
76609;BME280;65928;53.936;27.540;2023-02-03T06:00:42;98211.91;;;-3.82;77.07
76609;BME280;65928;53.936;27.540;2023-02-03T06:03:07;98285.66;;;-3.53;78.44
76609;BME280;65928;53.936;27.540;2023-02-03T06:05:34;98254.78;;;-3.66;76.42
76609;BME280;65928;53.936;27.540;2023-02-03T06:08:00;98372.09;;;-2.89;76.36
76609;BME280;65928;53.936;27.540;2023-02-03T06:10:26;98285.66;;;-3.52;75.04
76609;BME280;65928;53.936;27.540;2023-02-03T06:12:52;98283.97;;;-3.59;75.68
76609;BME280;65928;53.936;27.540;2023-02-03T06:15:18;98328.72;;;-3.57;75.34
76609;BME280;65928;53.936;27.540;2023-02-03T06:17:45;98812.72;;;-0.57;75.14
76609;BME280;65928;53.936;27.540;2023-02-03T06:20:12;98794.91;;;-0.93;75.43
76609;BME280;65928;53.936;27.540;2023-02-03T06:22:38;98289.31;;;-3.86;75.28
76609;BME280;65928;53.936;27.540;2023-02-03T06:25:04;98306.53;;;-3.88;76.02
76609;BME280;65928;53.936;27.540;2023-02-03T06:27:29;98277.31;;;-3.90;75.67
76609;BME280;65928;53.936;27.540;2023-02-03T06:29:55;98614.66;;;-2.23;75.83
76609;BME280;65928;53.936;27.540;2023-02-03T06:32:20;98308.16;;;-3.72;74.47
76609;BME280;65928;53.936;27.540;2023-02-03T06:34:46;98837.34;;;-1.05;74.34
76609;BME280;65928;53.936;27.540;2023-02-03T06:37:11;98902.00;;;-0.83;73.80
76609;BME280;65928;53.936;27.540;2023-02-03T06:39:37;98831.19;;;-0.88;74.59
76609;BME280;65928;53.936;27.540;2023-02-03T06:42:03;98879.69;;;-1.00;74.08
76609;BME280;65928;53.936;27.540;2023-02-03T06:44:28;98740.25;;;-1.70;74.44
76609;BME280;65928;53.936;27.540;2023-02-03T06:46:53;98311.06;;;-4.29;74.32
76609;BME280;65928;53.936;27.540;2023-02-03T06:49:20;98384.72;;;-3.63;73.67
76609;BME280;65928;53.936;27.540;2023-02-03T06:51:46;98744.53;;;-1.65;73.03
76609;BME280;65928;53.936;27.540;2023-02-03T06:54:12;98336.72;;;-4.04;73.74
76609;BME280;65928;53.936;27.540;2023-02-03T06:56:38;98556.34;;;-2.67;72.99
76609;BME280;65928;53.936;27.540;2023-02-03T06:59:04;98875.69;;;-1.50;73.32
76609;BME280;65928;53.936;27.540;2023-02-03T07:01:29;98736.13;;;-1.97;73.92
76609;BME280;65928;53.936;27.540;2023-02-03T07:03:56;98315.34;;;-4.27;73.21
76609;BME280;65928;53.936;27.540;2023-02-03T07:06:26;98273.41;;;-4.82;72.51
76609;BME280;65928;53.936;27.540;2023-02-03T07:08:57;98460.34;;;-3.49;72.66
76609;BME280;65928;53.936;27.540;2023-02-03T07:11:24;98886.75;;;-1.26;72.92
76609;BME280;65928;53.936;27.540;2023-02-03T07:13:50;98330.84;;;-4.30;72.61
76609;BME280;65928;53.936;27.540;2023-02-03T07:16:16;98763.34;;;-1.42;71.45
76609;BME280;65928;53.936;27.540;2023-02-03T07:18:42;98870.88;;;-0.80;72.10
76609;BME280;65928;53.936;27.540;2023-02-03T07:21:07;98393.44;;;-3.98;70.96
76609;BME280;65928;53.936;27.540;2023-02-03T07:23:33;98298.16;;;-4.31;70.22
76609;BME280;65928;53.936;27.540;2023-02-03T07:25:59;98852.75;;;-0.82;71.21
76609;BME280;65928;53.936;27.540;2023-02-03T07:28:25;98380.41;;;-3.65;71.57
76609;BME280;65928;53.936;27.540;2023-02-03T07:30:50;98858.00;;;-0.89;71.90
76609;BME280;65928;53.936;27.540;2023-02-03T07:33:16;98767.72;;;-1.44;72.05
76609;BME280;65928;53.936;27.540;2023-02-03T07:35:41;98871.72;;;-0.81;71.31
76609;BME280;65928;53.936;27.540;2023-02-03T07:38:07;98890.88;;;-0.99;70.85
76609;BME280;65928;53.936;27.540;2023-02-03T07:40:32;98352.31;;;-4.34;69.60
76609;BME280;65928;53.936;27.540;2023-02-03T07:42:58;98375.41;;;-3.99;71.37
76609;BME280;65928;53.936;27.540;2023-02-03T07:45:24;98680.41;;;-2.55;71.37
76609;BME280;65928;53.936;27.540;2023-02-03T07:47:49;98369.47;;;-4.18;69.52
76609;BME280;65928;53.936;27.540;2023-02-03T07:50:15;98868.69;;;-1.38;71.22
76609;BME280;65928;53.936;27.540;2023-02-03T07:52:41;98408.13;;;-4.04;70.33
76609;BME280;65928;53.936;27.540;2023-02-03T07:55:06;98356.66;;;-4.37;69.86
76609;BME280;65928;53.936;27.540;2023-02-03T07:57:32;98561.84;;;-3.31;70.58
76609;BME280;65928;53.936;27.540;2023-02-03T07:59:58;98914.50;;;-1.41;69.49
76609;BME280;65928;53.936;27.540;2023-02-03T08:02:23;98348.06;;;-4.44;69.49
76609;BME280;65928;53.936;27.540;2023-02-03T08:04:48;98306.06;;;-4.76;69.63
76609;BME280;65928;53.936;27.540;2023-02-03T08:07:14;98372.97;;;-4.44;69.50
76609;BME280;65928;53.936;27.540;2023-02-03T08:09:39;98910.16;;;-1.35;70.31
76609;BME280;65928;53.936;27.540;2023-02-03T08:12:05;98423.66;;;-4.31;69.24
76609;BME280;65928;53.936;27.540;2023-02-03T08:14:30;98905.97;;;-1.58;70.11
76609;BME280;65928;53.936;27.540;2023-02-03T08:16:56;98507.00;;;-4.17;69.28
76609;BME280;65928;53.936;27.540;2023-02-03T08:19:22;98387.66;;;-5.05;68.54
76609;BME280;65928;53.936;27.540;2023-02-03T08:21:47;98912.06;;;-1.70;69.02
76609;BME280;65928;53.936;27.540;2023-02-03T08:24:13;98425.44;;;-4.92;69.08
76609;BME280;65928;53.936;27.540;2023-02-03T08:26:38;98367.03;;;-5.35;68.95
76609;BME280;65928;53.936;27.540;2023-02-03T08:29:04;98913.97;;;-2.25;68.61
76609;BME280;65928;53.936;27.540;2023-02-03T08:31:30;98369.63;;;-5.29;68.54
76609;BME280;65928;53.936;27.540;2023-02-03T08:33:56;98382.50;;;-5.22;67.63
76609;BME280;65928;53.936;27.540;2023-02-03T08:36:22;98899.25;;;-2.09;69.51
76609;BME280;65928;53.936;27.540;2023-02-03T08:38:48;98391.97;;;-5.07;68.18
76609;BME280;65928;53.936;27.540;2023-02-03T08:41:15;98500.16;;;-4.36;68.32
76609;BME280;65928;53.936;27.540;2023-02-03T08:43:43;98435.72;;;-4.68;68.20
76609;BME280;65928;53.936;27.540;2023-02-03T08:46:10;98397.09;;;-4.83;67.74
76609;BME280;65928;53.936;27.540;2023-02-03T08:48:36;98876.75;;;-1.94;68.03
76609;BME280;65928;53.936;27.540;2023-02-03T08:51:01;99010.44;;;-1.62;67.57
76609;BME280;65928;53.936;27.540;2023-02-03T08:53:33;98381.63;;;-4.65;67.33
76609;BME280;65928;53.936;27.540;2023-02-03T08:55:58;98383.38;;;-4.90;65.83
76609;BME280;65928;53.936;27.540;2023-02-03T08:58:24;98272.66;;;-5.52;67.19
76609;BME280;65928;53.936;27.540;2023-02-03T09:00:49;98391.06;;;-4.64;66.26
76609;BME280;65928;53.936;27.540;2023-02-03T09:03:17;98463.19;;;-4.22;65.95
76609;BME280;65928;53.936;27.540;2023-02-03T09:05:42;98910.38;;;-1.86;66.06
76609;BME280;65928;53.936;27.540;2023-02-03T09:08:08;98394.50;;;-4.59;65.79
76609;BME280;65928;53.936;27.540;2023-02-03T09:10:34;98857.94;;;-2.32;65.18
76609;BME280;65928;53.936;27.540;2023-02-03T09:13:00;98370.50;;;-4.90;65.12
76609;BME280;65928;53.936;27.540;2023-02-03T09:15:25;98917.22;;;-1.68;66.55
76609;BME280;65928;53.936;27.540;2023-02-03T09:17:51;98888.84;;;-1.87;66.07
76609;BME280;65928;53.936;27.540;2023-02-03T09:20:17;98913.84;;;-1.90;65.82
76609;BME280;65928;53.936;27.540;2023-02-03T09:22:43;98749.41;;;-2.66;66.68
76609;BME280;65928;53.936;27.540;2023-02-03T09:25:08;98911.22;;;-1.72;65.70
76609;BME280;65928;53.936;27.540;2023-02-03T09:27:34;98775.19;;;-2.44;66.46
76609;BME280;65928;53.936;27.540;2023-02-03T09:29:59;98825.06;;;-2.13;66.85
76609;BME280;65928;53.936;27.540;2023-02-03T09:32:25;98894.78;;;-1.72;66.21
76609;BME280;65928;53.936;27.540;2023-02-03T09:34:51;98379.03;;;-4.76;66.17
76609;BME280;65928;53.936;27.540;2023-02-03T09:37:16;98436.50;;;-4.10;65.76
76609;BME280;65928;53.936;27.540;2023-02-03T09:39:41;98880.00;;;-1.51;65.20
76609;BME280;65928;53.936;27.540;2023-02-03T09:47:37;98578.16;;;-3.15;65.06
76609;BME280;65928;53.936;27.540;2023-02-03T09:50:06;98775.94;;;-2.16;64.52
76609;BME280;65928;53.936;27.540;2023-02-03T09:52:37;98779.38;;;-2.17;64.74
76609;BME280;65928;53.936;27.540;2023-02-03T09:58:17;98899.06;;;-1.61;64.83
76609;BME280;65928;53.936;27.540;2023-02-03T10:01:09;98949.94;;;-1.40;63.75
76609;BME280;65928;53.936;27.540;2023-02-03T10:03:43;98832.56;;;-1.59;63.60
76609;BME280;65928;53.936;27.540;2023-02-03T10:11:45;98891.97;;;-1.27;63.13
76609;BME280;65928;53.936;27.540;2023-02-03T10:22:30;98316.16;;;-4.14;62.87
76609;BME280;65928;53.936;27.540;2023-02-03T10:25:01;98891.91;;;-1.15;62.66
76609;BME280;65928;53.936;27.540;2023-02-03T10:27:28;98309.47;;;-4.70;62.45
76609;BME280;65928;53.936;27.540;2023-02-03T10:32:26;98977.22;;;-0.80;61.70
76609;BME280;65928;53.936;27.540;2023-02-03T10:34:52;98874.31;;;-0.78;60.87
76609;BME280;65928;53.936;27.540;2023-02-03T10:37:29;98467.81;;;-3.03;60.56
76609;BME280;65928;53.936;27.540;2023-02-03T10:39:56;98814.66;;;-0.81;60.41
76609;BME280;65928;53.936;27.540;2023-02-03T10:42:24;98879.28;;;-0.53;58.49
76609;BME280;65928;53.936;27.540;2023-02-03T10:44:59;98935.03;;;-0.05;60.17
76609;BME280;65928;53.936;27.540;2023-02-03T10:49:55;98857.09;;;-0.01;58.75
76609;BME280;65928;53.936;27.540;2023-02-03T10:52:30;98647.31;;;-1.10;58.62
76609;BME280;65928;53.936;27.540;2023-02-03T10:54:56;98357.31;;;-2.74;59.08
76609;BME280;65928;53.936;27.540;2023-02-03T10:57:24;98606.22;;;-1.44;58.10
76609;BME280;65928;53.936;27.540;2023-02-03T10:59:50;98882.63;;;0.31;58.64
76609;BME280;65928;53.936;27.540;2023-02-03T11:02:29;98820.84;;;0.54;57.95
76609;BME280;65928;53.936;27.540;2023-02-03T11:05:19;98645.31;;;-0.23;57.07
76609;BME280;65928;53.936;27.540;2023-02-03T11:07:48;98861.66;;;0.48;56.74
76609;BME280;65928;53.936;27.540;2023-02-03T11:10:35;98862.03;;;0.81;57.00
76609;BME280;65928;53.936;27.540;2023-02-03T11:13:23;98930.88;;;1.16;55.92
76609;BME280;65928;53.936;27.540;2023-02-03T11:21:09;98856.88;;;0.78;54.88
76609;BME280;65928;53.936;27.540;2023-02-03T11:23:41;98834.50;;;0.67;56.32
76609;BME280;65928;53.936;27.540;2023-02-03T11:26:11;98331.41;;;-1.93;55.69
76609;BME280;65928;53.936;27.540;2023-02-03T11:28:41;98817.03;;;1.28;56.46
76609;BME280;65928;53.936;27.540;2023-02-03T11:31:16;98374.00;;;-1.50;54.62
76609;BME280;65928;53.936;27.540;2023-02-03T11:33:46;98347.75;;;-1.88;54.73
76609;BME280;65928;53.936;27.540;2023-02-03T11:36:12;98793.94;;;0.55;55.33
76609;BME280;65928;53.936;27.540;2023-02-03T11:38:38;98736.88;;;-0.10;55.00
76609;BME280;65928;53.936;27.540;2023-02-03T11:41:14;98417.25;;;-2.29;56.10
76609;BME280;65928;53.936;27.540;2023-02-03T11:43:40;98849.44;;;0.53;55.26
76609;BME280;65928;53.936;27.540;2023-02-03T11:46:05;98847.34;;;0.76;56.21
76609;BME280;65928;53.936;27.540;2023-02-03T11:48:35;98844.53;;;0.32;55.72
76609;BME280;65928;53.936;27.540;2023-02-03T11:59:55;98841.84;;;0.41;55.18
76609;BME280;65928;53.936;27.540;2023-02-03T12:05:25;98864.41;;;0.97;55.20
76609;BME280;65928;53.936;27.540;2023-02-03T12:10:33;98940.06;;;0.09;55.26
76609;BME280;65928;53.936;27.540;2023-02-03T12:29:15;98805.28;;;1.06;53.89
76609;BME280;65928;53.936;27.540;2023-02-03T12:31:53;98812.25;;;1.53;53.87
76609;BME280;65928;53.936;27.540;2023-02-03T12:34:37;98331.06;;;-1.69;54.81
76609;BME280;65928;53.936;27.540;2023-02-03T12:37:16;98820.34;;;0.86;53.44
76609;BME280;65928;53.936;27.540;2023-02-03T12:40:18;98821.28;;;0.80;53.88
76609;BME280;65928;53.936;27.540;2023-02-03T12:42:52;98406.59;;;-2.04;54.56
76609;BME280;65928;53.936;27.540;2023-02-03T12:45:25;98821.72;;;0.53;55.22
76609;BME280;65928;53.936;27.540;2023-02-03T12:48:04;98283.19;;;-2.68;54.44
76609;BME280;65928;53.936;27.540;2023-02-03T12:50:51;98382.19;;;-1.82;55.33
76609;BME280;65928;53.936;27.540;2023-02-03T12:55:57;98800.97;;;0.50;55.48
76609;BME280;65928;53.936;27.540;2023-02-03T13:01:07;98779.56;;;0.35;55.02
76609;BME280;65928;53.936;27.540;2023-02-03T13:03:50;98819.38;;;0.35;55.41
76609;BME280;65928;53.936;27.540;2023-02-03T13:09:04;98705.25;;;-0.39;55.19
76609;BME280;65928;53.936;27.540;2023-02-03T13:16:39;98437.50;;;-1.89;55.15
76609;BME280;65928;53.936;27.540;2023-02-03T13:19:17;98289.44;;;-2.92;56.18
76609;BME280;65928;53.936;27.540;2023-02-03T13:21:47;98699.41;;;-0.56;56.10
76609;BME280;65928;53.936;27.540;2023-02-03T13:24:13;98263.38;;;-2.71;56.52
76609;BME280;65928;53.936;27.540;2023-02-03T13:32:37;98788.88;;;-0.16;57.61
76609;BME280;65928;53.936;27.540;2023-02-03T13:41:36;98267.31;;;-3.19;59.21
76609;BME280;65928;53.936;27.540;2023-02-03T13:44:10;98750.66;;;-0.05;59.58
76609;BME280;65928;53.936;27.540;2023-02-03T13:46:38;98334.47;;;-2.29;59.03
76609;BME280;65928;53.936;27.540;2023-02-03T13:49:05;98340.38;;;-2.21;58.58
76609;BME280;65928;53.936;27.540;2023-02-03T13:51:42;98268.44;;;-2.62;57.73
76609;BME280;65928;53.936;27.540;2023-02-03T13:54:16;98245.88;;;-2.49;57.70
76609;BME280;65928;53.936;27.540;2023-02-03T13:56:59;98705.25;;;-0.41;58.77
76609;BME280;65928;53.936;27.540;2023-02-03T13:59:43;98764.63;;;-0.15;59.51
76609;BME280;65928;53.936;27.540;2023-02-03T14:07:35;98834.81;;;-0.20;59.66
76609;BME280;65928;53.936;27.540;2023-02-03T14:12:59;98682.19;;;-0.63;59.41
76609;BME280;65928;53.936;27.540;2023-02-03T14:22:56;98776.66;;;-0.07;59.63
76609;BME280;65928;53.936;27.540;2023-02-03T14:25:23;98265.63;;;-3.26;60.12
76609;BME280;65928;53.936;27.540;2023-02-03T14:28:02;98785.56;;;-0.29;59.85
76609;BME280;65928;53.936;27.540;2023-02-03T14:30:29;98790.84;;;-0.33;60.12
76609;BME280;65928;53.936;27.540;2023-02-03T14:32:57;98277.66;;;-3.22;59.26
76609;BME280;65928;53.936;27.540;2023-02-03T14:35:38;98278.22;;;-2.88;58.32
76609;BME280;65928;53.936;27.540;2023-02-03T14:38:10;98789.84;;;-0.25;58.78
76609;BME280;65928;53.936;27.540;2023-02-03T14:43:31;98836.84;;;0.24;58.66
76609;BME280;65928;53.936;27.540;2023-02-03T14:59:42;98784.16;;;0.72;57.08
76609;BME280;65928;53.936;27.540;2023-02-03T15:02:20;98283.47;;;-2.23;56.13
76609;BME280;65928;53.936;27.540;2023-02-03T15:04:49;98276.38;;;-2.07;55.73
76609;BME280;65928;53.936;27.540;2023-02-03T15:07:42;98785.22;;;0.59;56.09
76609;BME280;65928;53.936;27.540;2023-02-03T15:10:28;98814.78;;;1.07;55.67
76609;BME280;65928;53.936;27.540;2023-02-03T15:12:56;98656.59;;;0.31;55.92
76609;BME280;65928;53.936;27.540;2023-02-03T15:15:27;98343.69;;;-1.45;56.15
76609;BME280;65928;53.936;27.540;2023-02-03T15:17:55;98748.69;;;0.12;57.66
76609;BME280;65928;53.936;27.540;2023-02-03T15:20:38;98562.69;;;-1.14;56.75
76609;BME280;65928;53.936;27.540;2023-02-03T15:23:24;98782.97;;;-0.29;58.06
76609;BME280;65928;53.936;27.540;2023-02-03T15:25:54;98793.41;;;-0.32;59.34
76609;BME280;65928;53.936;27.540;2023-02-03T15:28:21;98697.19;;;-0.88;59.32